YXSC weather

Scone Hospital Helipad
Scone, New South Wales, Australia

Public forecast

Using degrees Celsius for public forecast. Weather courtesy of forecast.io.

Closest aviation weather report (METAR) to Scone Hospital Helipad

Closest report is Tamworth Airport, 58.0 nm (107.5 km) N. Retrieved 2019/10/19 03:30 UTC (0 seconds ago):

YSTW 190330Z AUTO 23009KT 230V310 9999 // NCD 27/M10 Q1015 RF000/0000

Closest aviation forecast (TAF) to Scone Hospital Helipad

Closest forecast is Tamworth Airport, 58.0 nm (107.5 km) N. Retrieved 2019-10-19 00:36 UTC (3 hours ago):

TAF TAF YSTW 182303Z 1900/1918 28012KT CAVOK FM191000 20008KT CAVOK